createdAt,value
2019-05-23T00:01:02.227Z,13.70
2019-05-23T00:03:46.296Z,13.70
2019-05-23T00:06:18.424Z,13.80
2019-05-23T00:08:49.856Z,13.80
2019-05-23T00:11:40.282Z,13.80
2019-05-23T00:14:23.142Z,13.80
2019-05-23T00:16:54.810Z,13.80
2019-05-23T00:19:25.679Z,13.80
2019-05-23T00:21:56.052Z,13.90
2019-05-23T00:24:27.602Z,14.00
2019-05-23T00:26:59.699Z,14.00
2019-05-23T00:29:29.278Z,14.10
2019-05-23T00:32:03.853Z,14.10
2019-05-23T00:34:34.936Z,14.10
2019-05-23T00:37:06.838Z,14.10
2019-05-23T00:39:36.082Z,14.10
2019-05-23T00:42:06.277Z,14.10
2019-05-23T00:44:37.196Z,14.10
2019-05-23T00:47:08.404Z,14.00
2019-05-23T00:49:38.175Z,14.00
2019-05-23T00:52:08.752Z,14.00
2019-05-23T00:54:39.671Z,14.00
2019-05-23T00:57:10.133Z,13.90
2019-05-23T00:59:40.352Z,13.90
2019-05-23T01:02:11.180Z,13.90
2019-05-23T01:04:43.117Z,13.90
2019-05-23T01:07:13.646Z,13.80
2019-05-23T01:09:44.194Z,13.70
2019-05-23T01:12:15.967Z,13.60
2019-05-23T01:14:47.110Z,13.40
2019-05-23T01:17:18.757Z,13.40
2019-05-23T01:19:48.913Z,13.30
2019-05-23T01:22:18.253Z,13.20
2019-05-23T01:24:50.219Z,13.10
2019-05-23T01:27:20.693Z,13.20
2019-05-23T01:29:51.178Z,13.20
2019-05-23T01:32:45.235Z,13.20
2019-05-23T01:35:20.041Z,13.20
2019-05-23T01:37:49.414Z,13.30
2019-05-23T01:40:20.358Z,13.40
2019-05-23T01:42:51.618Z,13.40
2019-05-23T01:45:22.988Z,13.50
2019-05-23T01:47:53.428Z,13.60
2019-05-23T01:50:25.972Z,13.70
2019-05-23T01:52:55.800Z,13.80
2019-05-23T01:55:44.388Z,13.80
2019-05-23T01:58:14.051Z,13.90
2019-05-23T02:00:44.346Z,13.90
2019-05-23T02:03:15.077Z,13.90
2019-05-23T02:05:45.045Z,13.90
2019-05-23T02:08:14.826Z,13.90
2019-05-23T02:10:44.798Z,13.90
2019-05-23T02:13:14.806Z,13.80
2019-05-23T02:15:44.796Z,13.80
2019-05-23T02:18:15.963Z,13.80
2019-05-23T02:20:45.915Z,13.70
2019-05-23T02:23:15.092Z,13.70
2019-05-23T02:25:45.944Z,13.60
2019-05-23T02:28:15.848Z,13.60
2019-05-23T02:30:47.349Z,13.60
2019-05-23T02:33:17.658Z,13.60
2019-05-23T02:35:46.932Z,13.60
2019-05-23T02:38:34.085Z,13.50
2019-05-23T02:41:22.345Z,13.50
2019-05-23T02:43:56.033Z,13.40
2019-05-23T02:46:34.501Z,13.40
2019-05-23T02:49:07.275Z,13.40
2019-05-23T02:51:37.795Z,13.40
2019-05-23T02:54:11.980Z,13.40
2019-05-23T02:56:44.688Z,13.30
2019-05-23T02:59:35.362Z,13.20
2019-05-23T03:02:54.613Z,13.10
2019-05-23T03:05:28.166Z,13.00
2019-05-23T03:08:01.381Z,12.90
2019-05-23T03:10:50.576Z,12.80
2019-05-23T03:13:20.816Z,12.70
2019-05-23T03:15:51.614Z,12.70
2019-05-23T03:18:23.342Z,12.60
2019-05-23T03:20:52.907Z,12.60
2019-05-23T03:23:24.026Z,12.50
2019-05-23T03:26:33.200Z,12.40
2019-05-23T03:29:02.896Z,12.30
2019-05-23T03:31:43.449Z,12.20
2019-05-23T03:34:12.773Z,12.10
2019-05-23T03:36:43.560Z,12.10
2019-05-23T03:39:14.345Z,12.10
2019-05-23T03:41:44.751Z,12.10
2019-05-23T03:44:15.312Z,12.00
2019-05-23T03:46:47.078Z,11.90
2019-05-23T03:49:17.851Z,11.90
2019-05-23T03:51:48.168Z,11.80
2019-05-23T03:54:19.019Z,11.80
2019-05-23T03:56:49.867Z,11.70
2019-05-23T03:59:20.296Z,11.70
2019-05-23T04:01:51.731Z,11.60
2019-05-23T04:04:21.894Z,11.60
2019-05-23T04:06:51.756Z,11.50
2019-05-23T04:09:21.212Z,11.50
2019-05-23T04:11:50.544Z,11.50
2019-05-23T04:14:19.848Z,11.50
2019-05-23T04:16:49.709Z,11.40
2019-05-23T04:19:19.347Z,11.50
2019-05-23T04:21:48.667Z,11.50
2019-05-23T04:24:19.205Z,11.50
2019-05-23T04:26:48.982Z,11.50
2019-05-23T04:29:18.543Z,11.50
2019-05-23T04:32:06.266Z,11.50
2019-05-23T04:34:19.326Z,11.60
2019-05-23T04:36:48.541Z,11.70
2019-05-23T04:39:19.695Z,11.90
2019-05-23T04:41:49.116Z,12.00
2019-05-23T04:44:18.517Z,12.10
2019-05-23T04:46:48.094Z,12.20
2019-05-23T04:49:17.251Z,12.30
2019-05-23T04:51:47.632Z,12.50
2019-05-23T04:54:17.078Z,12.60
2019-05-23T04:56:46.437Z,12.70
2019-05-23T04:59:16.107Z,12.90
2019-05-23T05:01:45.594Z,13.00
2019-05-23T05:04:15.277Z,13.10
2019-05-23T05:06:44.500Z,13.30
2019-05-23T05:09:32.283Z,13.40
2019-05-23T05:12:03.086Z,13.50
2019-05-23T05:14:32.613Z,13.60
2019-05-23T05:17:04.287Z,13.70
2019-05-23T05:19:33.955Z,13.80
2019-05-23T05:22:03.299Z,13.90
2019-05-23T05:24:33.065Z,13.90
2019-05-23T05:27:05.582Z,14.00
2019-05-23T05:29:37.611Z,14.10
2019-05-23T05:32:07.699Z,14.20
2019-05-23T05:34:37.222Z,14.30
2019-05-23T05:37:10.938Z,14.40
2019-05-23T05:39:46.939Z,14.40
2019-05-23T05:42:17.113Z,14.40
2019-05-23T05:44:46.772Z,14.50
2019-05-23T05:47:16.404Z,14.60
2019-05-23T05:49:46.823Z,14.60
2019-05-23T05:52:16.112Z,14.80
2019-05-23T05:54:45.346Z,14.90
2019-05-23T05:57:15.012Z,15.00
2019-05-23T05:59:44.995Z,15.10
2019-05-23T06:02:15.626Z,15.20
2019-05-23T06:04:45.914Z,15.20
2019-05-23T06:07:22.673Z,15.30
2019-05-23T06:09:52.737Z,15.40
2019-05-23T06:12:21.995Z,15.60
2019-05-23T06:14:51.524Z,15.60
2019-05-23T06:17:20.969Z,15.70
2019-05-23T06:19:52.017Z,15.90
2019-05-23T06:22:22.383Z,15.90
2019-05-23T06:24:55.184Z,16.00
2019-05-23T06:27:23.149Z,16.10
2019-05-23T06:29:52.997Z,16.20
2019-05-23T06:32:24.199Z,16.30
2019-05-23T06:34:55.306Z,16.40
2019-05-23T06:37:24.953Z,16.60
2019-05-23T06:39:54.810Z,16.70
2019-05-23T06:42:24.033Z,16.70
2019-05-23T06:44:53.344Z,16.90
2019-05-23T06:47:22.683Z,16.90
2019-05-23T06:49:52.279Z,17.00
2019-05-23T06:52:21.600Z,17.10
2019-05-23T06:54:50.835Z,17.30
2019-05-23T06:57:21.085Z,17.40
2019-05-23T06:59:50.671Z,17.50
2019-05-23T07:02:20.193Z,17.60
2019-05-23T07:04:49.733Z,17.70
2019-05-23T07:07:19.444Z,17.90
2019-05-23T07:09:49.741Z,18.00
2019-05-23T07:12:19.344Z,18.10
2019-05-23T07:14:48.813Z,18.30
2019-05-23T07:17:19.546Z,18.40
2019-05-23T07:19:49.178Z,18.40
2019-05-23T07:22:19.685Z,18.60
2019-05-23T07:24:58.338Z,18.60
2019-05-23T07:27:21.480Z,18.70
2019-05-23T07:29:51.498Z,18.80
2019-05-23T07:32:20.980Z,19.00
2019-05-23T07:34:50.497Z,19.20
2019-05-23T07:37:19.678Z,19.30
2019-05-23T07:39:49.366Z,19.50
2019-05-23T07:42:18.868Z,19.60
2019-05-23T07:44:49.972Z,19.80
2019-05-23T07:47:19.432Z,20.10
2019-05-23T07:49:48.885Z,20.30
2019-05-23T07:52:18.866Z,20.20
2019-05-23T07:54:59.229Z,20.30
2019-05-23T07:57:28.964Z,20.40
2019-05-23T07:59:58.855Z,20.40
2019-05-23T08:02:34.808Z,20.30
2019-05-23T08:05:06.445Z,20.40
2019-05-23T08:07:36.642Z,20.40
2019-05-23T08:10:07.807Z,20.50
2019-05-23T08:12:37.691Z,20.80
2019-05-23T08:15:07.398Z,20.90
2019-05-23T08:17:38.558Z,21.10
2019-05-23T08:20:09.672Z,21.10
2019-05-23T08:22:38.836Z,21.10
2019-05-23T08:25:08.527Z,21.10
2019-05-23T08:27:37.780Z,21.30
2019-05-23T08:30:09.062Z,21.40
2019-05-23T08:32:38.633Z,21.60
2019-05-23T08:35:08.558Z,21.70
2019-05-23T08:37:38.604Z,21.80
2019-05-23T08:40:09.656Z,22.20
2019-05-23T08:42:39.777Z,22.40
2019-05-23T08:45:10.484Z,22.50
2019-05-23T08:47:39.686Z,22.40
2019-05-23T08:50:11.266Z,22.40
2019-05-23T08:52:40.965Z,22.50
2019-05-23T08:55:20.478Z,22.60
2019-05-23T08:57:50.833Z,22.70
2019-05-23T09:00:20.554Z,22.80
2019-05-23T09:02:51.283Z,23.00
2019-05-23T09:05:23.597Z,23.30
2019-05-23T09:07:53.768Z,23.60
2019-05-23T09:10:23.421Z,23.70
2019-05-23T09:12:52.702Z,23.60
2019-05-23T09:15:22.025Z,23.40
2019-05-23T09:17:53.912Z,23.70
2019-05-23T09:20:23.020Z,24.20
2019-05-23T09:22:52.736Z,24.30
2019-05-23T09:25:22.598Z,24.20
2019-05-23T09:27:53.440Z,24.20
2019-05-23T09:30:25.022Z,24.50
2019-05-23T09:32:54.916Z,24.70
2019-05-23T09:35:25.212Z,24.60
2019-05-23T09:37:54.462Z,24.60
2019-05-23T09:40:24.087Z,24.80
2019-05-23T09:42:53.400Z,24.90
2019-05-23T09:45:22.945Z,24.90
2019-05-23T09:47:52.485Z,25.10
2019-05-23T09:50:23.876Z,25.20
2019-05-23T09:52:53.212Z,25.00
2019-05-23T09:55:22.669Z,24.50
2019-05-23T09:57:52.291Z,24.40
2019-05-23T10:00:23.828Z,24.30
2019-05-23T10:02:53.169Z,24.40
2019-05-23T10:05:40.724Z,24.80
2019-05-23T10:07:54.006Z,25.20
2019-05-23T10:10:23.839Z,25.50
2019-05-23T10:12:53.007Z,25.50
2019-05-23T10:15:47.759Z,25.40
2019-05-23T10:18:19.936Z,25.40
2019-05-23T10:20:49.204Z,25.70
2019-05-23T10:23:18.883Z,26.00
2019-05-23T10:25:48.407Z,25.90
2019-05-23T10:28:18.604Z,26.30
2019-05-23T10:30:47.929Z,26.60
2019-05-23T10:33:17.854Z,26.60
2019-05-23T10:35:59.679Z,26.80
2019-05-23T10:38:18.031Z,26.50
2019-05-23T10:40:48.312Z,26.50
2019-05-23T10:43:18.528Z,26.50
2019-05-23T10:45:48.946Z,26.40
2019-05-23T10:48:18.992Z,26.40
2019-05-23T10:50:48.757Z,26.70
2019-05-23T10:53:18.166Z,27.00
2019-05-23T10:55:47.683Z,27.30
2019-05-23T10:58:17.974Z,27.10
2019-05-23T11:00:47.841Z,27.50
2019-05-23T11:03:17.719Z,27.80
2019-05-23T11:05:46.970Z,27.90
2019-05-23T11:08:16.648Z,27.60
2019-05-23T11:10:46.806Z,27.20
2019-05-23T11:13:16.071Z,27.10
2019-05-23T11:15:46.520Z,27.10
2019-05-23T11:18:16.171Z,27.20
2019-05-23T11:20:45.832Z,27.70
2019-05-23T11:23:19.468Z,28.30
2019-05-23T11:25:48.688Z,28.70
2019-05-23T11:28:17.936Z,28.40
2019-05-23T11:30:51.464Z,28.10
2019-05-23T11:33:21.748Z,27.90
2019-05-23T11:35:51.933Z,27.90
2019-05-23T11:38:22.454Z,27.80
2019-05-23T11:40:52.067Z,27.80
2019-05-23T11:43:21.912Z,27.90
2019-05-23T11:45:58.858Z,28.40
2019-05-23T11:48:28.397Z,28.50
2019-05-23T11:50:57.760Z,28.10
2019-05-23T11:53:27.434Z,27.50
2019-05-23T11:55:56.776Z,27.60
2019-05-23T11:58:26.196Z,28.00
2019-05-23T12:01:20.181Z,28.50
2019-05-23T12:03:43.234Z,28.90
2019-05-23T12:06:13.262Z,28.80
2019-05-23T12:08:42.511Z,28.00
2019-05-23T12:11:12.307Z,27.60
2019-05-23T12:13:41.653Z,27.60
2019-05-23T12:16:11.335Z,28.20
2019-05-23T12:18:42.265Z,28.60
2019-05-23T12:21:11.920Z,28.70
2019-05-23T12:23:41.171Z,28.60
2019-05-23T12:26:10.401Z,28.30
2019-05-23T12:28:40.165Z,28.60
2019-05-23T12:31:09.942Z,28.70
2019-05-23T12:33:39.233Z,28.90
2019-05-23T12:36:10.548Z,29.00
2019-05-23T12:38:40.210Z,28.70
2019-05-23T12:41:11.904Z,28.30
2019-05-23T12:43:41.524Z,27.30
2019-05-23T12:46:10.717Z,27.00
2019-05-23T12:49:04.026Z,26.80
2019-05-23T12:51:34.781Z,26.60
2019-05-23T12:54:04.807Z,26.40
2019-05-23T12:56:35.058Z,27.00
2019-05-23T12:59:06.061Z,27.30
2019-05-23T13:01:38.122Z,27.10
2019-05-23T13:04:10.375Z,26.90
2019-05-23T13:06:39.909Z,26.60
2019-05-23T13:09:10.392Z,27.20
2019-05-23T13:11:41.836Z,27.60
2019-05-23T13:14:11.797Z,28.00
2019-05-23T13:16:40.989Z,28.40
2019-05-23T13:19:10.341Z,28.30
2019-05-23T13:21:39.895Z,27.90
2019-05-23T13:24:09.827Z,27.70
2019-05-23T13:26:39.096Z,27.50
2019-05-23T13:29:08.867Z,27.80
2019-05-23T13:31:38.580Z,28.40
2019-05-23T13:34:07.762Z,28.50
2019-05-23T13:36:37.042Z,28.20
2019-05-23T13:39:09.902Z,28.70
2019-05-23T13:41:39.394Z,28.90
2019-05-23T13:44:08.857Z,28.40
2019-05-23T13:46:38.664Z,27.90
2019-05-23T13:49:08.436Z,27.50
2019-05-23T13:51:38.036Z,27.10
2019-05-23T13:54:07.340Z,26.60
2019-05-23T13:56:36.709Z,26.20
2019-05-23T13:59:06.073Z,26.10
2019-05-23T14:01:35.875Z,26.10
2019-05-23T14:04:05.564Z,25.90
2019-05-23T14:06:34.829Z,26.20
2019-05-23T14:09:05.190Z,26.90
2019-05-23T14:11:35.082Z,27.70
2019-05-23T14:14:05.122Z,28.20
2019-05-23T14:16:41.191Z,28.10
2019-05-23T14:19:10.778Z,27.50
2019-05-23T14:21:40.106Z,26.70
2019-05-23T14:24:09.292Z,26.30
2019-05-23T14:26:45.168Z,26.20
2019-05-23T14:29:14.478Z,26.00
2019-05-23T14:31:51.342Z,25.80
2019-05-23T14:34:21.094Z,25.70
2019-05-23T14:37:18.669Z,26.00
2019-05-23T14:39:57.235Z,26.10
2019-05-23T14:42:42.197Z,26.00
2019-05-23T14:45:30.404Z,26.00
2019-05-23T14:48:12.297Z,26.10
2019-05-23T14:50:57.850Z,26.20
2019-05-23T14:53:29.011Z,26.10
2019-05-23T14:55:58.246Z,26.00
2019-05-23T14:58:28.018Z,26.30
2019-05-23T15:00:57.790Z,26.60
2019-05-23T15:03:27.383Z,26.40
2019-05-23T15:05:56.621Z,26.30
2019-05-23T15:08:26.114Z,25.80
2019-05-23T15:10:55.356Z,25.50
2019-05-23T15:13:26.257Z,25.30
2019-05-23T15:15:55.772Z,25.20
2019-05-23T15:18:24.989Z,25.10
2019-05-23T15:20:54.133Z,25.10
2019-05-23T15:23:23.574Z,25.10
2019-05-23T15:25:53.210Z,24.90
2019-05-23T15:28:22.746Z,24.90
2019-05-23T15:30:51.927Z,24.90
2019-05-23T15:33:21.789Z,24.80
2019-05-23T15:35:51.293Z,24.60
2019-05-23T15:38:20.650Z,24.50
2019-05-23T15:40:49.887Z,24.50
2019-05-23T15:43:19.192Z,24.50
2019-05-23T15:45:48.430Z,24.40
2019-05-23T15:48:17.710Z,24.40
2019-05-23T15:50:50.470Z,24.20
2019-05-23T15:53:27.438Z,24.20
2019-05-23T15:56:27.648Z,24.10
2019-05-23T15:59:04.312Z,24.00
2019-05-23T16:01:40.815Z,24.10
2019-05-23T16:04:12.423Z,24.00
2019-05-23T16:06:42.432Z,24.20
2019-05-23T16:09:27.630Z,24.40
2019-05-23T16:11:44.035Z,24.80
2019-05-23T16:14:14.248Z,25.00
2019-05-23T16:16:44.000Z,25.30
2019-05-23T16:19:13.992Z,25.40
2019-05-23T16:21:43.294Z,25.40
2019-05-23T16:24:13.098Z,25.40
2019-05-23T16:26:42.613Z,25.70
2019-05-23T16:29:13.143Z,25.80
2019-05-23T16:31:42.845Z,25.90
2019-05-23T16:34:12.005Z,25.80
2019-05-23T16:36:41.234Z,25.70
2019-05-23T16:39:10.585Z,25.50
2019-05-23T16:41:40.148Z,25.50
2019-05-23T16:44:09.476Z,25.40
2019-05-23T16:46:39.179Z,25.40
2019-05-23T16:49:08.955Z,25.20
2019-05-23T16:51:38.338Z,25.00
2019-05-23T16:54:38.039Z,24.80
2019-05-23T16:57:26.716Z,24.60
2019-05-23T17:00:21.714Z,24.50
2019-05-23T17:03:12.183Z,24.30
2019-05-23T17:06:06.623Z,24.10
2019-05-23T17:08:57.847Z,24.00
2019-05-23T17:11:42.289Z,23.90
2019-05-23T17:14:33.965Z,23.80
2019-05-23T17:17:43.456Z,23.70
2019-05-23T17:20:19.481Z,23.60
2019-05-23T17:23:02.729Z,23.40
2019-05-23T17:25:57.303Z,23.30
2019-05-23T17:28:38.599Z,23.30
2019-05-23T17:31:10.891Z,23.20
2019-05-23T17:33:40.406Z,23.20
2019-05-23T17:36:09.653Z,23.10
2019-05-23T17:38:38.795Z,23.00
2019-05-23T17:41:08.044Z,23.00
2019-05-23T17:43:37.296Z,23.00
2019-05-23T17:46:06.538Z,22.90
2019-05-23T17:48:35.833Z,22.90
2019-05-23T17:51:05.095Z,22.80
2019-05-23T17:53:34.347Z,22.70
2019-05-23T17:56:04.465Z,22.70
2019-05-23T17:58:34.435Z,22.60
2019-05-23T18:01:05.163Z,22.60
2019-05-23T18:03:34.409Z,22.70
2019-05-23T18:06:04.585Z,22.80
2019-05-23T18:08:35.218Z,22.90
2019-05-23T18:11:04.861Z,22.90
2019-05-23T18:13:34.804Z,23.00
2019-05-23T18:16:04.730Z,23.10
2019-05-23T18:18:34.514Z,23.10
2019-05-23T18:21:04.422Z,23.10
2019-05-23T18:23:34.397Z,22.90
2019-05-23T18:26:03.816Z,22.90
2019-05-23T18:28:33.120Z,22.90
2019-05-23T18:31:11.535Z,22.90
2019-05-23T18:33:42.059Z,22.80
2019-05-23T18:36:11.452Z,22.80
2019-05-23T18:38:41.309Z,22.70
2019-05-23T18:41:12.016Z,22.70
2019-05-23T18:43:42.239Z,22.60
2019-05-23T18:46:17.018Z,22.50
2019-05-23T18:48:46.243Z,22.40
2019-05-23T18:51:16.483Z,22.40
2019-05-23T18:53:46.030Z,22.30
2019-05-23T18:56:15.607Z,22.20
2019-05-23T18:58:44.891Z,22.20
2019-05-23T19:01:33.203Z,22.10
2019-05-23T19:04:03.651Z,21.90
2019-05-23T19:06:33.113Z,21.80
2019-05-23T19:09:02.725Z,21.80
2019-05-23T19:11:32.929Z,21.60
2019-05-23T19:14:02.717Z,21.50
2019-05-23T19:16:33.034Z,21.40
2019-05-23T19:19:02.396Z,21.30
2019-05-23T19:21:34.107Z,21.20
2019-05-23T19:24:03.418Z,21.10
2019-05-23T19:26:32.612Z,21.00
2019-05-23T19:29:01.933Z,20.90
2019-05-23T19:31:31.596Z,20.80
2019-05-23T19:34:02.897Z,20.70
2019-05-23T19:36:32.704Z,20.50
2019-05-23T19:39:02.546Z,20.40
2019-05-23T19:41:37.514Z,20.30
2019-05-23T19:44:05.086Z,20.20
2019-05-23T19:46:34.601Z,20.10
2019-05-23T19:49:03.910Z,20.00
2019-05-23T19:51:33.158Z,19.90
2019-05-23T19:54:02.774Z,19.90
2019-05-23T19:56:32.483Z,19.90
2019-05-23T19:59:01.776Z,19.80
2019-05-23T20:01:35.509Z,19.70
2019-05-23T20:04:05.515Z,19.70
2019-05-23T20:06:36.078Z,19.60
2019-05-23T20:09:36.840Z,19.50
2019-05-23T20:12:06.834Z,19.50
2019-05-23T20:14:36.187Z,19.30
2019-05-23T20:17:05.758Z,19.20
2019-05-23T20:19:35.055Z,19.10
2019-05-23T20:22:04.239Z,19.00
2019-05-23T20:24:33.534Z,18.90
2019-05-23T20:27:03.192Z,18.80
2019-05-23T20:29:32.374Z,18.70
2019-05-23T20:32:01.632Z,18.70
2019-05-23T20:34:31.560Z,18.70
2019-05-23T20:37:01.594Z,18.80
2019-05-23T20:39:31.539Z,18.80
2019-05-23T20:42:10.851Z,18.80
2019-05-23T20:44:32.052Z,18.70
2019-05-23T20:47:01.330Z,18.60
2019-05-23T20:49:30.557Z,18.60
2019-05-23T20:52:00.123Z,18.50
2019-05-23T20:54:33.192Z,18.50
2019-05-23T20:57:00.484Z,18.40
2019-05-23T20:59:29.937Z,18.30
2019-05-23T21:01:59.186Z,18.30
2019-05-23T21:04:28.459Z,18.20
2019-05-23T21:06:57.699Z,18.20
2019-05-23T21:09:26.933Z,18.10
2019-05-23T21:11:57.546Z,18.10
2019-05-23T21:14:26.920Z,18.00
2019-05-23T21:16:56.216Z,18.00
2019-05-23T21:19:25.970Z,17.90
2019-05-23T21:21:55.337Z,17.90
2019-05-23T21:24:24.942Z,17.80
2019-05-23T21:26:54.629Z,17.80
2019-05-23T21:29:24.009Z,17.70
2019-05-23T21:31:53.414Z,17.60
2019-05-23T21:34:23.174Z,17.60
2019-05-23T21:36:52.541Z,17.50
2019-05-23T21:39:22.186Z,17.50
2019-05-23T21:41:51.522Z,17.40
2019-05-23T21:44:20.887Z,17.30
2019-05-23T21:46:50.250Z,17.30
2019-05-23T21:49:19.587Z,17.20
2019-05-23T21:51:51.642Z,17.20
2019-05-23T21:54:19.775Z,17.20
2019-05-23T21:56:49.422Z,17.10
2019-05-23T21:59:18.715Z,17.10
2019-05-23T22:01:57.290Z,17.00
2019-05-23T22:04:28.883Z,16.90
2019-05-23T22:06:59.942Z,16.90
2019-05-23T22:09:29.165Z,16.80
2019-05-23T22:11:58.985Z,16.80
2019-05-23T22:14:28.155Z,16.70
2019-05-23T22:16:57.426Z,16.70
2019-05-23T22:19:27.096Z,16.60
2019-05-23T22:21:56.546Z,16.60
2019-05-23T22:24:26.072Z,16.60
2019-05-23T22:26:55.894Z,16.50
2019-05-23T22:29:25.879Z,16.40
2019-05-23T22:31:56.566Z,16.40
2019-05-23T22:34:41.456Z,16.30
2019-05-23T22:37:23.563Z,16.30
2019-05-23T22:39:52.824Z,16.20
2019-05-23T22:42:23.781Z,16.20
2019-05-23T22:44:52.957Z,16.10
2019-05-23T22:47:22.586Z,16.10
2019-05-23T22:49:51.738Z,16.10
2019-05-23T22:52:21.289Z,16.10
2019-05-23T22:54:50.829Z,16.10
2019-05-23T22:57:20.128Z,16.00
2019-05-23T22:59:49.375Z,16.00
2019-05-23T23:02:18.683Z,15.90
2019-05-23T23:04:48.198Z,15.90
2019-05-23T23:07:18.244Z,15.80
2019-05-23T23:09:47.600Z,15.80
2019-05-23T23:12:16.781Z,15.80
2019-05-23T23:14:45.948Z,15.70
2019-05-23T23:17:16.346Z,15.70
2019-05-23T23:19:45.490Z,15.60
2019-05-23T23:22:14.641Z,15.60
2019-05-23T23:24:43.809Z,15.50
2019-05-23T23:27:13.183Z,15.50
2019-05-23T23:29:42.429Z,15.50
2019-05-23T23:32:11.980Z,15.50
2019-05-23T23:34:41.635Z,15.50
2019-05-23T23:37:10.804Z,15.50
2019-05-23T23:39:40.829Z,15.50
2019-05-23T23:42:11.325Z,15.50
2019-05-23T23:44:39.953Z,15.60
2019-05-23T23:47:27.143Z,15.70
2019-05-23T23:50:14.293Z,15.70
2019-05-23T23:53:01.334Z,15.90
2019-05-23T23:55:48.353Z,16.00
2019-05-23T23:58:16.779Z,16.10
